Time;durP1;ratioP1;P1;durP2;ratioP2;P2;SDS_P1;SDS_P2;PMS_P1;PMS_P2;Temp;Humidity;BMP_temperature;BMP_pressure;BME280_temperature;BME280_humidity;BME280_pressure;Samples;Min_cycle;Max_cycle;Signal;HPM_P1;HPM_P2
2023/05/27 00:00:58;;;;;;;0.57;0.57;;;17.80;79.60;;;;;;5128670;27;20031;-77
2023/05/27 00:03:23;;;;;;;0.17;0.17;;;17.50;80.50;;;;;;5127798;27;20505;-76
2023/05/27 00:05:49;;;;;;;0.40;0.40;;;17.60;80.20;;;;;;5126884;27;20031;-76
2023/05/27 00:08:15;;;;;;;1.20;0.80;;;17.50;80.50;;;;;;5127807;27;20042;-76
2023/05/27 00:10:41;;;;;;;0.30;0.30;;;17.40;81.10;;;;;;5130009;27;20035;-76
2023/05/27 00:13:06;;;;;;;0.47;0.47;;;17.50;80.70;;;;;;5128978;27;20030;-77
2023/05/27 00:15:32;;;;;;;0.87;0.87;;;17.50;80.50;;;;;;5129351;27;20046;-77
2023/05/27 00:17:59;;;;;;;0.10;0.10;;;17.40;81.30;;;;;;5128014;27;20027;-77
2023/05/27 00:20:26;;;;;;;0.47;0.47;;;17.40;80.80;;;;;;5128920;27;20635;-77
2023/05/27 00:22:51;;;;;;;0.05;0.05;;;17.40;81.00;;;;;;5127704;27;20144;-76
2023/05/27 00:25:20;;;;;;;2.03;1.87;;;17.50;80.70;;;;;;5126616;27;20132;-76
2023/05/27 00:27:47;;;;;;;0.30;0.30;;;17.30;81.30;;;;;;5125390;27;20031;-76
2023/05/27 00:30:13;;;;;;;0.60;0.60;;;17.30;81.20;;;;;;5128872;27;20023;-76
2023/05/27 00:32:38;;;;;;;0.60;0.60;;;17.40;81.00;;;;;;5127326;27;20038;-76
2023/05/27 00:35:05;;;;;;;0.53;0.50;;;17.20;81.60;;;;;;5126275;27;20126;-76
2023/05/27 00:37:30;;;;;;;0.55;0.32;;;17.20;81.70;;;;;;5127346;27;20023;-77
2023/05/27 00:39:56;;;;;;;1.17;1.07;;;17.10;82.10;;;;;;5128382;27;20569;-76
2023/05/27 00:42:22;;;;;;;0.77;0.77;;;17.10;82.50;;;;;;5128408;27;20037;-76
2023/05/27 00:44:48;;;;;;;1.13;1.03;;;17.00;82.60;;;;;;5128084;27;20069;-77
2023/05/27 00:47:15;;;;;;;1.03;0.97;;;17.00;83.00;;;;;;5126866;27;20059;-77
2023/05/27 00:49:42;;;;;;;2.28;1.08;;;16.90;83.50;;;;;;5127186;27;20019;-77
2023/05/27 00:52:08;;;;;;;0.90;0.90;;;16.90;83.10;;;;;;5128464;27;20097;-76
2023/05/27 00:54:34;;;;;;;1.40;1.30;;;16.90;83.60;;;;;;5127655;27;20069;-76
2023/05/27 00:57:02;;;;;;;0.90;0.90;;;16.90;83.60;;;;;;5126977;27;20035;-76
2023/05/27 00:59:28;;;;;;;1.17;1.17;;;16.80;83.70;;;;;;5128437;27;20019;-76
2023/05/27 01:01:54;;;;;;;0.57;0.57;;;16.80;83.60;;;;;;5127898;27;20131;-76
2023/05/27 01:04:20;;;;;;;2.40;0.57;;;16.90;83.40;;;;;;5127067;27;20031;-76
2023/05/27 01:06:59;;;;;;;0.75;0.75;;;16.80;83.40;;;;;;5126694;27;20035;-76
2023/05/27 01:09:53;;;;;;;0.47;0.47;;;16.80;83.40;;;;;;5124041;27;20031;-76
2023/05/27 01:12:51;;;;;;;0.85;0.60;;;16.80;83.50;;;;;;5126134;27;20027;-76
2023/05/27 01:15:18;;;;;;;1.35;0.30;;;16.80;83.70;;;;;;5116685;27;20034;-76
2023/05/27 01:17:46;;;;;;;0.52;0.45;;;16.70;83.70;;;;;;5126529;27;20622;-77
2023/05/27 01:20:14;;;;;;;0.75;0.50;;;16.70;84.00;;;;;;5127665;27;20034;-77
2023/05/27 01:22:42;;;;;;;0.32;0.30;;;16.70;83.40;;;;;;5125790;27;20031;-76
2023/05/27 01:25:09;;;;;;;3.13;1.67;;;16.60;84.10;;;;;;5126936;27;20031;-77
2023/05/27 01:27:34;;;;;;;0.15;0.15;;;16.60;83.90;;;;;;5117506;27;20115;-76
2023/05/27 01:30:01;;;;;;;0.90;0.90;;;16.70;83.70;;;;;;5127583;27;20073;-77
2023/05/27 01:32:51;;;;;;;2.63;0.88;;;16.70;83.80;;;;;;5127810;27;20051;-77
2023/05/27 01:35:39;;;;;;;0.77;0.77;;;16.70;83.60;;;;;;5127814;27;20035;-76
2023/05/27 01:38:08;;;;;;;0.15;0.15;;;16.70;83.50;;;;;;5120957;27;20027;-77
2023/05/27 01:40:35;;;;;;;0.65;0.65;;;16.70;83.60;;;;;;5126472;27;20094;-76
2023/05/27 01:43:01;;;;;;;0.75;0.75;;;16.70;83.70;;;;;;5122411;27;20011;-76
2023/05/27 01:45:27;;;;;;;0.50;0.50;;;16.60;83.80;;;;;;5127826;27;20621;-76
2023/05/27 01:47:53;;;;;;;0.30;0.30;;;16.60;83.80;;;;;;5127661;27;20034;-76
2023/05/27 01:50:18;;;;;;;0.10;0.10;;;16.70;83.60;;;;;;5127170;27;20490;-76
2023/05/27 01:52:45;;;;;;;0.70;0.70;;;16.60;83.80;;;;;;5127202;27;20034;-76
2023/05/27 01:55:11;;;;;;;0.55;0.55;;;16.60;84.10;;;;;;5126461;27;20495;-77
2023/05/27 01:57:37;;;;;;;1.05;0.98;;;16.60;83.60;;;;;;5125684;27;20031;-77
2023/05/27 02:00:05;;;;;;;3.97;2.00;;;16.60;83.80;;;;;;5126489;27;20033;-77
2023/05/27 02:02:31;;;;;;;0.57;0.50;;;16.60;83.90;;;;;;5126873;27;20027;-76
2023/05/27 02:04:57;;;;;;;1.60;0.65;;;16.60;83.90;;;;;;5125458;27;20521;-76
2023/05/27 02:07:22;;;;;;;0.50;0.50;;;16.60;84.00;;;;;;5124237;27;20035;-76
2023/05/27 02:09:48;;;;;;;0.53;0.53;;;16.60;83.90;;;;;;5125280;27;20031;-76
2023/05/27 02:12:14;;;;;;;0.30;0.30;;;16.60;84.00;;;;;;5127217;27;20109;-76
2023/05/27 02:14:40;;;;;;;0.52;0.52;;;16.40;84.10;;;;;;5126474;27;20110;-76
2023/05/27 02:17:07;;;;;;;1.02;1.02;;;16.40;84.50;;;;;;5126975;27;20039;-75
2023/05/27 02:19:33;;;;;;;0.32;0.32;;;16.40;84.50;;;;;;5126775;27;20122;-75
2023/05/27 02:21:59;;;;;;;0.20;0.20;;;16.40;84.80;;;;;;5123327;27;20102;-76
2023/05/27 02:24:25;;;;;;;1.20;1.10;;;16.30;85.10;;;;;;5123846;27;20023;-76
2023/05/27 02:26:50;;;;;;;0.30;0.30;;;16.30;85.10;;;;;;5126699;27;20027;-76
2023/05/27 02:29:16;;;;;;;0.43;0.43;;;16.30;85.50;;;;;;5128556;27;20031;-76
2023/05/27 02:31:42;;;;;;;0.77;0.77;;;16.20;85.50;;;;;;5129953;27;20689;-76
2023/05/27 02:34:07;;;;;;;0.50;0.50;;;16.20;85.60;;;;;;5129197;27;20038;-75
2023/05/27 02:36:33;;;;;;;0.50;0.50;;;16.10;86.00;;;;;;5130881;27;20037;-76
2023/05/27 02:38:59;;;;;;;0.30;0.30;;;16.10;86.20;;;;;;5127975;27;20111;-76
2023/05/27 02:41:25;;;;;;;0.63;0.63;;;16.10;86.40;;;;;;5130976;27;20466;-76
2023/05/27 02:43:51;;;;;;;0.57;0.57;;;16.00;86.50;;;;;;5130660;27;20019;-77
2023/05/27 02:46:17;;;;;;;0.73;0.37;;;16.00;86.70;;;;;;5130137;27;20039;-76
2023/05/27 02:48:43;;;;;;;0.43;0.43;;;16.00;86.90;;;;;;5128655;27;20031;-77
2023/05/27 02:51:08;;;;;;;0.47;0.47;;;16.00;86.90;;;;;;5130170;27;20041;-77
2023/05/27 02:53:34;;;;;;;0.43;0.43;;;15.90;87.30;;;;;;5130016;27;20055;-76
2023/05/27 02:56:00;;;;;;;0.40;0.33;;;16.00;87.40;;;;;;5132022;27;20902;-77
2023/05/27 02:58:25;;;;;;;0.33;0.33;;;15.90;87.70;;;;;;5129219;27;20118;-77
2023/05/27 03:00:51;;;;;;;0.43;0.43;;;15.90;87.80;;;;;;5128239;27;20695;-77
2023/05/27 03:03:17;;;;;;;0.20;0.20;;;15.80;88.10;;;;;;5128241;27;20129;-77
2023/05/27 03:05:43;;;;;;;0.40;0.40;;;15.80;88.20;;;;;;5131276;27;20097;-77
2023/05/27 03:08:09;;;;;;;1.33;1.23;;;15.70;88.50;;;;;;5126886;27;20027;-76
2023/05/27 03:10:34;;;;;;;0.93;0.93;;;15.70;88.70;;;;;;5130723;27;20031;-76
2023/05/27 03:13:01;;;;;;;0.47;0.47;;;15.70;89.00;;;;;;5130345;27;20063;-76
2023/05/27 03:15:29;;;;;;;0.67;0.67;;;15.60;89.10;;;;;;5129253;27;20030;-76
2023/05/27 03:17:55;;;;;;;0.30;0.30;;;15.60;89.40;;;;;;5130247;27;20301;-77
2023/05/27 03:20:21;;;;;;;0.98;0.95;;;15.50;89.60;;;;;;5130521;27;20031;-76
2023/05/27 03:22:47;;;;;;;1.43;1.33;;;15.50;89.80;;;;;;5130577;27;20031;-76
2023/05/27 03:25:13;;;;;;;1.53;1.47;;;15.50;89.90;;;;;;5129393;27;20248;-76
2023/05/27 03:27:40;;;;;;;0.45;0.45;;;15.50;89.90;;;;;;5121321;27;21739;-77
2023/05/27 03:30:07;;;;;;;0.63;0.63;;;15.50;89.90;;;;;;5128735;27;20031;-77
2023/05/27 03:32:33;;;;;;;0.38;0.38;;;15.50;89.90;;;;;;5128653;27;20034;-77
2023/05/27 03:34:58;;;;;;;0.67;0.67;;;15.50;90.10;;;;;;5129785;27;20046;-77
2023/05/27 03:37:24;;;;;;;3.53;0.70;;;15.50;89.70;;;;;;5129174;27;20023;-77
2023/05/27 03:39:50;;;;;;;1.13;0.63;;;15.50;89.70;;;;;;5128752;27;20053;-77
2023/05/27 03:42:15;;;;;;;0.50;0.50;;;15.40;89.90;;;;;;5129503;27;20031;-76
2023/05/27 03:44:41;;;;;;;0.40;0.40;;;15.40;90.30;;;;;;5129794;27;20709;-77
2023/05/27 03:47:07;;;;;;;0.60;0.60;;;15.30;90.10;;;;;;5124760;27;20763;-77
2023/05/27 03:49:33;;;;;;;0.70;0.67;;;15.30;90.20;;;;;;5129446;27;20611;-78
2023/05/27 03:51:58;;;;;;;1.73;1.03;;;15.20;90.40;;;;;;5129095;27;20039;-77
2023/05/27 03:54:24;;;;;;;0.30;0.30;;;15.20;90.30;;;;;;5129134;27;20043;-77
2023/05/27 03:56:50;;;;;;;1.13;1.13;;;15.20;90.30;;;;;;5128834;27;20112;-76
2023/05/27 03:59:17;;;;;;;2.17;1.38;;;15.30;90.30;;;;;;5127648;27;20512;-76
2023/05/27 04:01:44;;;;;;;0.45;0.45;;;15.20;90.30;;;;;;5126998;27;20038;-76
2023/05/27 04:04:10;;;;;;;0.60;0.60;;;15.20;90.30;;;;;;5127950;27;20038;-77
2023/05/27 04:06:35;;;;;;;0.40;0.40;;;15.30;90.30;;;;;;5129065;27;20565;-78
2023/05/27 04:09:03;;;;;;;0.50;0.50;;;15.20;90.40;;;;;;5122450;27;20091;-76
2023/05/27 04:11:29;;;;;;;0.50;0.50;;;15.20;90.40;;;;;;5127423;27;20023;-76
2023/05/27 04:13:55;;;;;;;0.40;0.40;;;15.10;90.40;;;;;;5128672;27;20031;-77
2023/05/27 04:16:21;;;;;;;0.60;0.60;;;15.20;90.50;;;;;;5128872;27;20039;-77
2023/05/27 04:18:49;;;;;;;0.40;0.40;;;15.20;90.50;;;;;;5127770;27;20023;-77
2023/05/27 04:21:18;;;;;;;0.70;0.70;;;15.20;90.40;;;;;;5128857;27;20027;-77
2023/05/27 04:23:44;;;;;;;0.60;0.60;;;15.20;90.40;;;;;;5125183;27;20116;-75
2023/05/27 04:26:10;;;;;;;0.43;0.43;;;15.20;90.30;;;;;;5116245;27;20023;-75
2023/05/27 04:28:36;;;;;;;0.57;0.57;;;15.30;90.30;;;;;;5123977;27;20897;-75
2023/05/27 04:31:02;;;;;;;0.50;0.50;;;15.30;90.20;;;;;;5126772;27;20130;-76
2023/05/27 04:33:27;;;;;;;4.07;2.40;;;15.50;90.00;;;;;;5125970;27;20108;-75
2023/05/27 04:35:53;;;;;;;0.30;0.30;;;15.80;88.90;;;;;;5127711;27;20031;-75
2023/05/27 04:38:20;;;;;;;0.30;0.30;;;16.10;87.60;;;;;;5127527;27;20061;-75
2023/05/27 04:40:52;;;;;;;0.20;0.20;;;16.40;86.20;;;;;;5127322;27;20039;-75
2023/05/27 04:43:21;;;;;;;0.10;0.10;;;16.60;85.40;;;;;;5128262;27;20023;-77
2023/05/27 04:45:47;;;;;;;0.77;0.77;;;16.80;84.70;;;;;;5128019;27;20119;-76
2023/05/27 04:48:15;;;;;;;0.90;0.60;;;17.00;84.20;;;;;;5127638;27;20182;-75
2023/05/27 04:50:41;;;;;;;0.68;0.68;;;17.10;83.50;;;;;;5127718;27;20117;-75
2023/05/27 04:53:07;;;;;;;0.25;0.25;;;17.60;82.00;;;;;;5127710;27;20967;-75
2023/05/27 04:55:33;;;;;;;1.67;1.57;;;17.80;81.90;;;;;;5120019;27;20091;-76
2023/05/27 04:58:03;;;;;;;0.20;0.20;;;17.90;80.70;;;;;;5128300;27;20265;-75
2023/05/27 05:00:49;;;;;;;0.25;0.25;;;18.20;80.00;;;;;;5126975;27;20047;-76
2023/05/27 05:03:21;;;;;;;1.15;0.57;;;18.30;79.20;;;;;;5126198;27;20028;-76
2023/05/27 05:05:53;;;;;;;0.40;0.40;;;18.60;78.10;;;;;;5127816;27;20035;-75
2023/05/27 05:08:20;;;;;;;0.30;0.30;;;18.90;77.10;;;;;;5126234;27;20058;-76
2023/05/27 05:10:51;;;;;;;2.65;1.38;;;19.20;76.00;;;;;;5124024;27;20031;-75
2023/05/27 05:13:16;;;;;;;0.30;0.30;;;19.80;74.10;;;;;;5126997;27;20038;-75
2023/05/27 05:15:45;;;;;;;2.17;0.67;;;19.90;73.10;;;;;;5121726;27;20506;-76
2023/05/27 05:18:11;;;;;;;0.20;0.20;;;20.00;73.00;;;;;;5124901;27;20096;-76
2023/05/27 05:20:37;;;;;;;0.30;0.30;;;20.40;71.90;;;;;;5124089;27;20093;-76
2023/05/27 05:23:02;;;;;;;0.20;0.20;;;20.70;71.10;;;;;;5126465;27;20031;-79
2023/05/27 05:25:30;;;;;;;0.30;0.30;;;20.60;71.50;;;;;;5117092;27;20037;-79
2023/05/27 05:27:56;;;;;;;0.30;0.30;;;20.80;70.50;;;;;;5118844;27;20084;-77
2023/05/27 05:30:22;;;;;;;0.20;0.20;;;20.90;70.00;;;;;;5115944;27;20019;-77
2023/05/27 05:32:47;;;;;;;0.60;0.60;;;21.30;69.30;;;;;;5119833;27;20038;-77
2023/05/27 05:35:13;;;;;;;0.67;0.67;;;21.40;68.90;;;;;;5117026;27;20054;-77
2023/05/27 05:37:39;;;;;;;0.40;0.25;;;21.40;68.50;;;;;;5112581;27;20024;-76
2023/05/27 05:40:06;;;;;;;0.77;0.77;;;21.40;68.20;;;;;;5123545;27;20035;-76
2023/05/27 05:42:31;;;;;;;0.32;0.32;;;21.60;67.30;;;;;;5125390;27;20007;-76
2023/05/27 05:44:57;;;;;;;0.87;0.83;;;21.70;66.50;;;;;;5120291;27;20051;-77
2023/05/27 05:47:23;;;;;;;0.30;0.20;;;21.90;66.70;;;;;;5122968;27;20387;-77
2023/05/27 05:49:48;;;;;;;0.33;0.33;;;22.60;64.90;;;;;;5121170;27;20406;-77
2023/05/27 05:52:14;;;;;;;0.10;0.10;;;22.70;64.40;;;;;;5120918;27;20034;-77
2023/05/27 05:54:40;;;;;;;1.30;0.45;;;22.80;64.20;;;;;;5114876;27;20514;-77
2023/05/27 05:57:06;;;;;;;0.70;0.70;;;23.10;63.40;;;;;;5118347;27;20209;-77
2023/05/27 05:59:31;;;;;;;0.60;0.60;;;23.10;63.10;;;;;;5124675;27;20379;-78
2023/05/27 06:01:57;;;;;;;0.33;0.33;;;23.60;62.20;;;;;;5115852;27;20570;-78
2023/05/27 06:04:23;;;;;;;0.40;0.40;;;23.70;61.40;;;;;;5111839;27;20027;-77
2023/05/27 06:06:48;;;;;;;0.37;0.37;;;23.70;61.00;;;;;;5119113;27;20028;-77
2023/05/27 06:09:14;;;;;;;0.10;0.10;;;23.90;60.10;;;;;;5123222;27;20042;-77
2023/05/27 06:11:40;;;;;;;0.50;0.50;;;24.00;60.20;;;;;;5118717;27;20035;-78
2023/05/27 06:14:07;;;;;;;0.80;0.43;;;24.20;60.10;;;;;;5109745;27;20466;-79
2023/05/27 06:16:35;;;;;;;0.13;0.13;;;24.20;59.30;;;;;;5116498;28;20573;-78
2023/05/27 06:19:01;;;;;;;0.28;0.28;;;25.00;58.50;;;;;;5111056;27;20100;-77
2023/05/27 06:21:26;;;;;;;15.30;0.60;;;25.50;57.90;;;;;;5119579;28;20058;-76
2023/05/27 06:23:52;;;;;;;0.00;0.00;;;24.80;57.10;;;;;;5125852;28;20067;-77
2023/05/27 06:26:18;;;;;;;0.20;0.15;;;25.50;57.30;;;;;;5114756;27;20736;-78
2023/05/27 06:28:43;;;;;;;0.20;0.20;;;25.70;57.10;;;;;;5116157;27;20034;-78
2023/05/27 06:31:09;;;;;;;0.10;0.10;;;26.00;56.70;;;;;;5125079;27;20313;-77
2023/05/27 06:33:34;;;;;;;0.47;0.47;;;26.10;55.80;;;;;;5119950;27;20038;-75
2023/05/27 06:36:00;;;;;;;0.10;0.10;;;26.50;54.30;;;;;;5113212;28;20288;-77
2023/05/27 06:38:26;;;;;;;0.20;0.20;;;26.50;54.00;;;;;;5120292;27;20027;-77
2023/05/27 06:40:52;;;;;;;0.05;0.05;;;26.80;54.70;;;;;;5119297;28;20027;-76
2023/05/27 06:43:17;;;;;;;0.80;0.43;;;27.00;53.20;;;;;;5108555;28;20055;-76
2023/05/27 06:45:43;;;;;;;0.55;0.55;;;27.90;52.30;;;;;;5118984;28;20059;-77
2023/05/27 06:48:09;;;;;;;0.47;0.38;;;27.50;51.80;;;;;;5115252;28;20510;-76
2023/05/27 06:50:34;;;;;;;0.08;0.08;;;27.80;52.10;;;;;;5117287;28;20051;-76
2023/05/27 06:53:00;;;;;;;0.20;0.20;;;27.60;52.20;;;;;;5120293;28;20066;-77
2023/05/27 06:55:26;;;;;;;0.38;0.38;;;27.80;52.50;;;;;;5109266;28;20036;-77
2023/05/27 06:57:52;;;;;;;0.05;0.05;;;28.10;52.50;;;;;;5117008;28;20058;-77
2023/05/27 07:00:18;;;;;;;0.00;0.00;;;28.70;50.00;;;;;;5115081;27;20885;-77
2023/05/27 07:02:43;;;;;;;0.10;0.10;;;29.40;49.70;;;;;;5123502;28;20879;-77
2023/05/27 07:05:09;;;;;;;0.10;0.10;;;29.20;49.00;;;;;;5117722;28;20154;-77
2023/05/27 07:07:35;;;;;;;0.00;0.00;;;30.10;49.20;;;;;;5118256;27;20037;-79
2023/05/27 07:10:00;;;;;;;0.60;0.60;;;29.70;48.30;;;;;;5114056;28;20077;-77
2023/05/27 07:12:26;;;;;;;;;;;30.50;46.70;;;;;;5121855;27;20074;-76
2023/05/27 07:14:51;;;;;;;;;;;29.90;46.60;;;;;;5122796;27;19918;-77
2023/05/27 07:17:17;;;;;;;0.35;0.35;;;30.10;47.00;;;;;;5115682;27;19907;-78
2023/05/27 07:19:42;;;;;;;0.17;0.17;;;30.60;46.50;;;;;;5116460;27;20035;-77
2023/05/27 07:22:08;;;;;;;;;;;31.50;45.50;;;;;;5113610;27;20043;-77
2023/05/27 07:24:34;;;;;;;0.00;0.00;;;31.50;45.30;;;;;;5118782;27;19954;-77
2023/05/27 07:26:59;;;;;;;;;;;31.00;44.50;;;;;;5122427;27;20059;-77
2023/05/27 07:29:25;;;;;;;0.10;0.05;;;31.50;44.70;;;;;;5124212;27;19981;-78
2023/05/27 07:31:51;;;;;;;;;;;31.60;45.40;;;;;;5124227;27;20125;-77
2023/05/27 07:34:16;;;;;;;0.40;0.40;;;31.70;45.20;;;;;;5124853;27;19946;-78
2023/05/27 07:36:42;;;;;;;0.50;0.50;;;31.80;44.60;;;;;;5122751;27;20050;-79
2023/05/27 07:39:07;;;;;;;;;;;32.20;44.40;;;;;;5121286;27;20030;-80
2023/05/27 07:41:33;;;;;;;0.13;0.13;;;32.90;43.50;;;;;;5126022;27;19922;-78
2023/05/27 07:43:59;;;;;;;0.40;0.40;;;32.80;44.00;;;;;;5126369;27;20054;-78
2023/05/27 07:46:25;;;;;;;0.35;0.35;;;33.50;42.90;;;;;;5123201;27;20135;-76
2023/05/27 07:48:50;;;;;;;0.00;0.00;;;33.40;43.00;;;;;;5126276;27;20090;-79
2023/05/27 07:51:16;;;;;;;0.38;0.38;;;33.80;41.40;;;;;;5127061;27;20027;-78
2023/05/27 07:53:42;;;;;;;0.00;0.00;;;33.70;42.60;;;;;;5124106;27;20222;-78
2023/05/27 07:56:07;;;;;;;0.00;0.00;;;33.60;40.50;;;;;;5122074;27;20019;-80
2023/05/27 07:58:33;;;;;;;0.30;0.30;;;34.30;42.40;;;;;;5125474;27;20027;-77
2023/05/27 08:00:59;;;;;;;0.25;0.25;;;34.40;41.20;;;;;;5121075;27;20030;-78
2023/05/27 08:03:25;;;;;;;0.00;0.00;;;34.70;40.70;;;;;;5125374;27;20045;-79
2023/05/27 08:05:50;;;;;;;0.25;0.25;;;34.80;40.60;;;;;;5123307;27;20035;-79
2023/05/27 08:08:16;;;;;;;0.20;0.20;;;35.20;41.50;;;;;;5122431;27;20083;-78
2023/05/27 08:10:44;;;;;;;0.13;0.13;;;36.10;40.00;;;;;;5124084;27;20350;-79
2023/05/27 08:13:09;;;;;;;0.00;0.00;;;35.50;39.80;;;;;;5124651;27;20050;-78
2023/05/27 08:15:35;;;;;;;0.65;0.43;;;36.70;39.10;;;;;;5126630;27;20023;-79
2023/05/27 08:18:01;;;;;;;0.05;0.05;;;36.40;38.90;;;;;;5119688;27;20065;-78
2023/05/27 08:20:27;;;;;;;0.10;0.10;;;36.80;39.00;;;;;;5123184;27;20116;-78
2023/05/27 08:22:53;;;;;;;0.35;0.20;;;36.00;39.00;;;;;;5124955;27;20159;-79
2023/05/27 08:25:19;;;;;;;0.20;0.20;;;36.20;39.10;;;;;;5120840;27;20018;-79
2023/05/27 08:27:50;;;;;;;0.00;0.00;;;36.40;39.50;;;;;;5120439;27;20509;-78
2023/05/27 08:30:17;;;;;;;0.10;0.10;;;35.90;38.80;;;;;;5116240;27;20016;-80
2023/05/27 08:32:43;;;;;;;0.30;0.30;;;36.60;38.30;;;;;;5120225;27;20127;-79
2023/05/27 08:35:10;;;;;;;0.00;0.00;;;36.50;38.60;;;;;;5124253;27;20030;-78
2023/05/27 08:37:36;;;;;;;0.00;0.00;;;36.70;37.70;;;;;;5124889;27;20023;-78
2023/05/27 08:40:06;;;;;;;0.43;0.43;;;37.20;38.00;;;;;;5125271;27;20020;-79
2023/05/27 08:42:32;;;;;;;0.08;0.08;;;36.80;38.30;;;;;;5125864;27;20031;-79
2023/05/27 08:44:59;;;;;;;0.10;0.10;;;37.50;37.00;;;;;;5124138;27;20379;-79
2023/05/27 08:47:27;;;;;;;0.00;0.00;;;38.60;36.60;;;;;;5124429;27;20019;-78
2023/05/27 08:49:53;;;;;;;0.00;0.00;;;38.50;36.30;;;;;;5125064;27;20014;-79
2023/05/27 08:52:22;;;;;;;0.10;0.10;;;37.70;36.60;;;;;;5123412;27;20031;-80
2023/05/27 08:54:49;;;;;;;0.00;0.00;;;38.20;36.00;;;;;;5123069;27;20071;-80
2023/05/27 08:57:19;;;;;;;0.00;0.00;;;38.70;36.70;;;;;;5120759;27;20023;-79
2023/05/27 08:59:45;;;;;;;0.30;0.13;;;39.40;34.60;;;;;;5138294;27;20026;-79
2023/05/27 09:02:14;;;;;;;0.25;0.25;;;39.20;35.00;;;;;;5117451;27;20514;-80
2023/05/27 09:04:40;;;;;;;0.00;0.00;;;39.10;34.30;;;;;;5125617;27;20080;-80
2023/05/27 09:07:09;;;;;;;0.00;0.00;;;39.40;35.00;;;;;;5123510;27;20027;-79
2023/05/27 09:09:35;;;;;;;0.20;0.20;;;39.80;33.70;;;;;;5124561;27;20857;-79
2023/05/27 09:12:03;;;;;;;0.00;0.00;;;39.70;34.20;;;;;;5127336;27;20407;-78
2023/05/27 09:14:31;;;;;;;0.15;0.15;;;40.30;33.90;;;;;;5123414;27;20766;-79
2023/05/27 09:17:04;;;;;;;1.00;0.65;;;40.30;32.40;;;;;;5121095;27;20091;-79
2023/05/27 09:19:30;;;;;;;0.47;0.47;;;40.50;33.10;;;;;;5123770;27;20110;-79
2023/05/27 09:21:56;;;;;;;0.00;0.00;;;39.20;30.90;;;;;;5119819;27;20023;-79
2023/05/27 09:24:25;;;;;;;0.00;0.00;;;41.10;32.70;;;;;;5124060;27;20047;-79
2023/05/27 09:26:52;;;;;;;0.10;0.10;;;41.80;33.20;;;;;;5125380;27;20047;-79
2023/05/27 09:29:23;;;;;;;0.10;0.10;;;41.80;32.40;;;;;;5123119;27;20047;-79
2023/05/27 09:31:53;;;;;;;0.35;0.35;;;41.50;33.30;;;;;;5125268;27;20030;-79
2023/05/27 09:34:18;;;;;;;0.10;0.10;;;41.00;32.60;;;;;;5122712;27;20034;-80
2023/05/27 09:36:45;;;;;;;0.10;0.10;;;41.60;33.20;;;;;;5125989;27;20031;-81
2023/05/27 09:39:12;;;;;;;0.00;0.00;;;41.50;33.10;;;;;;5122627;27;20038;-79
2023/05/27 09:41:38;;;;;;;0.20;0.20;;;40.10;33.10;;;;;;5125211;27;20087;-78
2023/05/27 09:44:08;;;;;;;0.10;0.10;;;40.50;33.80;;;;;;5125703;27;20039;-80
2023/05/27 09:46:34;;;;;;;3.72;1.15;;;40.70;34.70;;;;;;5123568;27;20168;-80
2023/05/27 09:49:02;;;;;;;0.00;0.00;;;41.90;33.30;;;;;;5120715;27;20047;-79
2023/05/27 09:51:28;;;;;;;0.00;0.00;;;42.50;34.30;;;;;;5117227;27;20032;-76
2023/05/27 09:53:57;;;;;;;0.00;0.00;;;41.20;33.10;;;;;;5122359;27;20039;-77
2023/05/27 09:56:27;;;;;;;0.88;0.88;;;41.50;32.30;;;;;;5123113;27;20110;-78
2023/05/27 09:58:56;;;;;;;0.30;0.30;;;41.00;34.20;;;;;;5124715;27;20047;-78
2023/05/27 10:01:25;;;;;;;0.00;0.00;;;42.10;31.90;;;;;;5122087;27;20034;-78
2023/05/27 10:03:52;;;;;;;0.10;0.10;;;42.20;31.70;;;;;;5121419;27;20092;-80
2023/05/27 10:06:18;;;;;;;0.38;0.30;;;42.40;31.50;;;;;;5121545;27;20057;-78
2023/05/27 10:08:44;;;;;;;0.15;0.15;;;42.60;30.90;;;;;;5124403;27;20030;-80
2023/05/27 10:11:11;;;;;;;0.30;0.30;;;42.60;31.20;;;;;;5118688;27;20652;-81
2023/05/27 10:13:37;;;;;;;0.03;0.03;;;42.80;31.20;;;;;;5128324;27;20023;-81
2023/05/27 10:16:03;;;;;;;0.00;0.00;;;42.40;31.30;;;;;;5122527;27;20041;-81
2023/05/27 10:18:30;;;;;;;0.00;0.00;;;41.30;33.20;;;;;;5125563;27;20523;-81
2023/05/27 10:21:00;;;;;;;0.35;0.35;;;41.60;32.60;;;;;;5120814;28;20768;-80
2023/05/27 10:23:27;;;;;;;0.00;0.00;;;41.20;32.70;;;;;;5121060;28;20031;-80
2023/05/27 10:26:00;;;;;;;0.10;0.10;;;42.10;34.50;;;;;;5119880;27;20023;-79
2023/05/27 10:28:27;;;;;;;0.43;0.40;;;41.20;35.80;;;;;;5117398;28;20088;-77
2023/05/27 10:31:02;;;;;;;1.45;0.35;;;40.60;35.10;;;;;;5108902;27;20442;-78
2023/05/27 10:33:35;;;;;;;0.28;0.28;;;39.80;33.60;;;;;;5115556;28;20031;-77
2023/05/27 10:36:12;;;;;;;0.88;0.82;;;40.30;37.60;;;;;;5125165;28;20098;-78
2023/05/27 10:38:41;;;;;;;0.00;0.00;;;37.80;36.00;;;;;;5124308;27;20027;-76
2023/05/27 10:41:08;;;;;;;0.05;0.05;;;37.30;37.50;;;;;;5111468;28;20072;-77
2023/05/27 10:43:34;;;;;;;0.30;0.30;;;36.20;35.30;;;;;;5116538;28;20088;-78
2023/05/27 10:46:04;;;;;;;0.17;0.17;;;35.20;38.70;;;;;;5111185;28;20024;-77
2023/05/27 10:48:32;;;;;;;0.35;0.35;;;33.90;42.80;;;;;;5118322;27;20522;-76
2023/05/27 10:50:59;;;;;;;0.30;0.30;;;32.60;42.20;;;;;;5111062;27;20026;-76
2023/05/27 10:53:28;;;;;;;0.30;0.30;;;31.70;37.90;;;;;;5115733;27;20122;-76
2023/05/27 10:55:57;;;;;;;1.95;0.50;;;31.60;38.80;;;;;;5130381;27;20043;-76
2023/05/27 10:58:22;;;;;;;0.10;0.10;;;31.60;40.50;;;;;;5128945;27;20034;-76
2023/05/27 11:00:52;;;;;;;0.15;0.15;;;30.90;42.10;;;;;;5126844;27;20012;-77
2023/05/27 11:03:27;;;;;;;0.20;0.20;;;30.60;37.80;;;;;;5120194;27;20096;-75
2023/05/27 11:06:03;;;;;;;0.30;0.30;;;30.40;40.60;;;;;;5116838;27;20497;-75
2023/05/27 11:08:29;;;;;;;0.00;0.00;;;30.30;40.20;;;;;;5115343;27;20034;-76
2023/05/27 11:11:02;;;;;;;0.17;0.17;;;30.30;42.20;;;;;;5119939;27;20031;-76
2023/05/27 11:13:34;;;;;;;0.52;0.40;;;30.50;41.10;;;;;;5127916;27;20027;-76
2023/05/27 11:16:01;;;;;;;1.95;0.65;;;30.90;42.00;;;;;;5113328;27;20089;-75
2023/05/27 11:18:34;;;;;;;0.20;0.20;;;30.20;44.60;;;;;;5123278;27;20031;-76
2023/05/27 11:21:02;;;;;;;0.43;0.30;;;30.50;44.80;;;;;;5115131;27;20040;-76
2023/05/27 11:23:39;;;;;;;0.15;0.15;;;30.80;46.30;;;;;;5124616;27;20023;-76
2023/05/27 11:26:12;;;;;;;0.10;0.10;;;29.90;42.20;;;;;;5131433;27;20015;-76
2023/05/27 11:28:37;;;;;;;0.00;0.00;;;29.90;41.20;;;;;;5120835;27;20104;-76
2023/05/27 11:31:04;;;;;;;0.10;0.10;;;29.90;41.90;;;;;;5130100;27;20543;-76
2023/05/27 11:33:32;;;;;;;0.05;0.05;;;29.90;45.00;;;;;;5128093;27;20054;-77
2023/05/27 11:36:07;;;;;;;0.00;0.00;;;29.90;41.20;;;;;;5125090;27;20173;-75
2023/05/27 11:38:56;;;;;;;0.28;0.28;;;29.40;42.20;;;;;;5116348;27;20038;-76
2023/05/27 11:41:28;;;;;;;0.10;0.10;;;29.00;42.40;;;;;;5127045;27;20027;-76
2023/05/27 11:43:58;;;;;;;0.00;0.00;;;29.40;47.70;;;;;;5125885;27;20407;-76
2023/05/27 11:46:51;;;;;;;0.15;0.15;;;29.50;44.50;;;;;;5129867;27;20166;-76
2023/05/27 11:49:18;;;;;;;0.10;0.10;;;29.60;43.70;;;;;;5118287;27;21095;-76
2023/05/27 11:51:46;;;;;;;0.22;0.17;;;29.10;41.70;;;;;;5130056;27;20680;-76
2023/05/27 11:54:23;;;;;;;0.20;0.20;;;29.10;43.50;;;;;;5125474;27;20059;-76
2023/05/27 11:56:49;;;;;;;0.00;0.00;;;29.20;44.00;;;;;;5125549;27;20027;-76
2023/05/27 11:59:15;;;;;;;0.10;0.10;;;29.10;41.20;;;;;;5126715;27;20023;-76
2023/05/27 12:01:42;;;;;;;0.22;0.22;;;28.80;43.50;;;;;;5123376;27;20065;-76
2023/05/27 12:04:07;;;;;;;;;;;29.10;42.30;;;;;;5125304;27;20035;-77
2023/05/27 12:06:33;;;;;;;0.10;0.10;;;28.80;42.80;;;;;;5120019;27;19911;-76
2023/05/27 12:08:59;;;;;;;0.22;0.22;;;29.20;48.60;;;;;;5124092;27;20022;-76
2023/05/27 12:11:26;;;;;;;0.03;0.03;;;29.00;45.00;;;;;;5127298;27;20042;-76
2023/05/27 12:13:53;;;;;;;0.77;0.75;;;28.80;42.60;;;;;;5127656;27;20981;-76
2023/05/27 12:16:19;;;;;;;0.30;0.30;;;28.70;43.30;;;;;;5129375;27;20030;-76
2023/05/27 12:18:45;;;;;;;0.28;0.28;;;28.70;44.80;;;;;;5126379;27;20016;-76
2023/05/27 12:21:11;;;;;;;0.15;0.15;;;28.90;44.10;;;;;;5125065;27;20831;-76
2023/05/27 12:23:37;;;;;;;0.43;0.43;;;28.80;51.90;;;;;;5123354;27;20070;-76
2023/05/27 12:26:02;;;;;;;0.20;0.20;;;28.90;49.80;;;;;;5123168;27;20050;-76
2023/05/27 12:28:28;;;;;;;0.10;0.10;;;28.50;50.70;;;;;;5129421;27;20062;-76
2023/05/27 12:30:54;;;;;;;0.08;0.08;;;28.50;51.00;;;;;;5127695;27;20031;-76
2023/05/27 12:33:20;;;;;;;;;;;28.60;52.60;;;;;;5123529;27;20027;-76
2023/05/27 12:35:46;;;;;;;0.20;0.20;;;28.40;50.70;;;;;;5126419;27;19922;-76
2023/05/27 12:38:12;;;;;;;0.30;0.30;;;28.20;49.40;;;;;;5121137;27;20031;-76
2023/05/27 12:40:37;;;;;;;0.00;0.00;;;28.30;48.90;;;;;;5123268;27;20530;-76
2023/05/27 12:43:03;;;;;;;0.20;0.20;;;28.30;44.10;;;;;;5121037;27;20050;-77
2023/05/27 12:45:30;;;;;;;0.00;0.00;;;28.40;49.60;;;;;;5124381;27;20056;-77
2023/05/27 12:47:55;;;;;;;0.20;0.20;;;28.30;46.50;;;;;;5126130;27;20098;-78